Warning: Javascript must be enabled to use all the features on this page!


Page Loading - Please Wait...

* We've detected you're using a mobile device. Find our Next Generation Station Page here.
Click to hideNews Bulletins

Peak Streamflow for the Nation

USGS 05359500 SOUTH FORK FLAMBEAU RIVER NEAR PHILLIPS, WI

Price County, Wisconsin
Hydrologic Unit Code 07050002
Latitude  45°42'12", Longitude  90°36'56" NAD83
Drainage area 609  square miles
Gage datum 1,381.10 feet above NAVD88
Output formats
Table
Graph
Tab-separated file
peakfq (watstore) format
Reselect output format
Water
Year
Date Gage
Height
(feet)
Stream-
flow
(cfs)
1930 1930-06-15 9.40 3,180
1931 1931-06-22 10.10 3,820
1932 1932-04-11 10.70 4,380
1933 1933-04-16 9.40 3,180
1934 1934-04-10 13.60 8,680
1935 1935-03-21   5,000
1936 1936-04-16 12.10 5,780
1937 1937-04-16 9.30 2,870
1938 1938-06-02 10.70 4,400
1939 1939-03-27 10.90 4,600
1940 1940-05-22 9.40 3,100
1941 1941-08-31 12.00 5,630
1942 1942-06-01 9.20 2,930
1943 1943-06-18 14.32 10,200
1944 1944-06-07 10.80 4,500
1945 1945-06-03 11.36 5,140
1946 1946-06-26 13.00 7,460
1947 1947-04-07 9.50 3,210
1948 1948-04-27 7.40 1,480
1949 1949-07-06 10.90 4,600
1950 1950-04-19 11.70 5,490
1951 1951-04-12 11.88 5,750
1952 1952-04-20 11.29 5,030
1953 1953-05-22 9.30 3,020
1954 1954-05-03 12.40 6,230
1955 1954-10-16 10.50 4,240
1956 1956-04-08 9.60 3,250
1957 1957-04-21 8.10 1,900
1958 1958-07-03 11.20 5,070
1959 1959-09-23 11.66 5,420
1960 1960-08-30 10.30 4,020
1961 1961-05-17 9.81 3,480
1962 1962-05-24 8.55 2,260
1963 1963-04-03 7.92 1,760
1964 1964-05-10 8.45 2,180
1965 1965-04-19 11.64 5,690
1966 1966-03-23 9.90 3,580
1967 1967-04-02 12.45 6,900
1968 1968-06-22 10.62 4,370
1969 1969-04-12 11.09 4,930
1970 1970-05-31 9.62 3,350
1971 1971-04-13 11.77 5,880
1972 1972-04-20 11.34 5,260
1973 1973-03-16 11.52 5,510
1974 1974-06-11 9.83 3,560
1975 1975-04-24 10.97 4,780
2018 2018-06-19 12.57 6,440
2019 2019-05-21 12.07 5,930
2020 2020-07-27 11.15 4,770